Riyadh, Saudi Arabia
Current Conditions -  °F | °C
As of 10:00 AM on Friday 31 Oct 2014 (Local Time) from OERK Reporting Station
Clear Clear  
Wind Chill: 84°   Ceiling: Unl
Heat Index: 84°   Visibility: 6mi
Dew Point: 43°   Wind: 14mph
Humidity: 23%   Direction: 180°S
Pressure: 29.97"   Gusts: NA
Location:  24.65°N, 46.77°E
Report Text: OERK 310700Z 18012KT CAVOK 29/06 Q1015 NOSIG
Loading
Personal Weather Stations






























Interactive Weather Map
Tropical Storm Tracking
New forecast layout! Learn more

10-Day Weather Forecast

Advertisements
Track Severe Weather on mobile